Lone Rock, WI (53556)

07:53 AM CST die 11o December, anno 2016 (GMT -0600)
Tri-County Regional | | Change Station
Active Advisory: Winter Storm Warning Active Notice: Public Information Statement

Elev 719 ft 43.21 °N, 90.18 °W | Updated 57 minutes ago

Overcast
Aequaliter Nubila
23 °F
Feels Like 13 °F
N
9
Ventus Variabilis Ventus from Eurus

Hodie
High -- | Low -- °F
--% Chance of Precip.
Yesterday
High -- | Low -- °F
Precip. -- in
Pressio 30.00 in
Visibilitas 7.0 milia passuum
Clouds Aequaliter Nubila 1400 ft
Frigus Venti 13 °F
Frigus in quo Ros apparet 20 °F
Umor 88%
Rainfall 0.06 in
Snow Depth Not available.
7:23 AM 4:25 PM
Waxing Gibbous, 91% visible
METAR KLNR 111256Z AUTO 09008KT 7SM OVC014 M05/M07 A2997 RMK AO2 SNE49 SLP157 P0000 T10501067
Pressio 30.00 in
Visibilitas 7.0 milia passuum
Clouds Aequaliter Nubila 1400 ft
Frigus Venti 13 °F
Frigus in quo Ros apparet 20 °F
Umor 88%
Rainfall 0.06 in
Snow Depth Not available.
7:23 AM 4:25 PM
Waxing Gibbous, 91% visible
METAR KLNR 111256Z AUTO 09008KT 7SM OVC014 M05/M07 A2997 RMK AO2 SNE49 SLP157 P0000 T10501067

10-Day Weather Forecast

Almanac

Astronomy

Dec. 11, 2016 Rise Set
Actual Time
Civil Twilight
Nautical Twilight
Astronomical Twilight
Moon
Length Of Visible Light
Length of Day
Tomorrow will be .
, % of the Moon is Illuminated

Today's Extremes

State Highs State Lows

Community

WunderPhotos

Upload Photos

1,956,708 photos uploaded!

WunderBlog® & News

Nearby

Air Quality

  Air Quality AQ Index Pollutant
Not available.

Snow Depth

Station Depth Elevation

Earthquake Activity

City Distance Mag. Time & Date
Minimum magnitude displayed is 2.5.

Coastal Water Temperatures

Locus Calor

Stations

Nearby Weather Stations

Station Location Temp Frigus Venti Frigus in quo Ros apparet Umor Ventus Precip. Elev Renovata Type
                   

Watches & Warnings

Winter Storm Warning
Issued: 6:59 AM CST Dec. 11, 2016 – National Weather Service

... Winter Storm Warning remains in effect until 6 PM CST this
evening...

* expect snow to continue... diminishing late this afternoon.

* The heaviest snowfall rates will occur this morning.

* Additional snow accumulations of 1 to 2 inches are expected.

* Look for significant reductions in visibility at times.

* Plan on difficult driving conditions.

Precautionary/preparedness actions...

A Winter Storm Warning for snow means severe winter weather
conditions are occurring. If you must travel... keep an extra
flashlight... food and water in your vehicle in case of an
emergency. The latest Road conditions for the state you are
calling from can be obtained by calling 5 1 1.